CYYZ/YYZ METAR and TAF weather

Enter ICAO airport designator
Station Type Date Time Source
CYYZ METAR 2020/11/27 03:00 UTC NOAA

CYYZ 270300Z 27005KT 15SM OVC037 07/04 A3003 RMK SC8 SLP174


Station Type Date Time Source
CYYZ Decoded METAR 2020/11/27 03:00 UTC NOAA

Toronto Pearson Int'L. Ont., Canada (CYYZ) 43-40N 079-38W 173M
Nov 26, 2020 - 10:00 PM EST / 2020.11.27 0300 UTC
Wind: from the W (270 degrees) at 6 MPH (5 KT):0
Visibility: 15 mile(s):0
Sky conditions: overcast
Temperature: 44 F (7 C)
Dew Point: 39 F (4 C)
Relative Humidity: 81%
Pressure (altimeter): 30.03 in. Hg (1016 hPa)
ob: CYYZ 270300Z 27005KT 15SM OVC037 07/04 A3003 RMK SC8 SLP174
cycle: 3

Station Type Date Time Source
CYYZ TAF 2020/11/27 03:42 UTC NOAA

TAF CYYZ 270238Z 2703/2806 26008KT P6SM SCT015 OVC040
TEMPO 2703/2708 BKN015 OVC040
FM270800 22006KT P6SM SCT008 OVC030
TEMPO 2708/2717 BKN008 OVC030 PROB30 2709/2715 2SM BR OVC003
FM271700 24008KT P6SM BKN030
TEMPO 2717/2806 OVC020
RMK NXT FCST BY 270600Z

Example: see airport list